KVDI/VDI METAR and TAF weather

Enter ICAO airport designator
Station Type Date Time Source
KVDI METAR 2020/12/01 21:35 UTC NOAA

KVDI 012135Z AUTO 29005G08KT 10SM CLR 08/M07 A3014 RMK AO2


Station Type Date Time Source
KVDI Decoded METAR 2020/12/01 21:35 UTC NOAA

Vidalia, Vidalia Municipal Airport, GA, United States (KVDI) 32-11-33N 082-22-19W
Dec 01, 2020 - 04:35 PM EST / 2020.12.01 2135 UTC
Wind: from the WNW (290 degrees) at 6 MPH (5 KT) gusting to 9 MPH (8 KT):0
Visibility: 10 mile(s):0
Sky conditions: clear
Temperature: 46 F (8 C)
Dew Point: 19 F (-7 C)
Relative Humidity: 33%
Pressure (altimeter): 30.14 in. Hg (1020 hPa)
ob: KVDI 012135Z AUTO 29005G08KT 10SM CLR 08/M07 A3014 RMK AO2
cycle: 21

Station Type Date Time Source
KVDI TAF UTC NOAA

Error!

Example: see airport list